Briefing drone pour Valencay

Rechercher une autre localisation

Conditions de vol :


Nous sommes le : Dimanche 19 septembre 2021
Il est 11:02 UTC (13:02 LT)

Lever de soleil : 05:10 UTC (07:10 LT)
Coucher de soleil : 18:24 UTC (20:24 LT)

Météo

L'essentiel des conditions de vol

VIGILANCE MÉTÉO FRANCE - Indre (36)
Pas de vigilances particulieres
CARTES DES FRONTS
METAR de LFYR
LFYR 191030Z AUTO 27005KT 230V310 9999 OVC007 15/15 Q1015

Date d'émission: 19/09/2021
Heure d'émission: 10:30 UTC
Vent: 270° (variable du 230° au 310°) pour 5 KT (9 km/h)
Visibilité horizontale: > 10 km
Plafond :
- Couvert à 700ft (213m)
Température: 15 °C
Point de rosée: 15 °C
Humidité: 100%
Pression (QNH): 1015 hPa
TAF de LFYR
AMD LFYR 171259Z 1712/1809 CNL

Conditions prévues :

Heure d'émission : Bulletin éffectué le 17 à 12:00 UTC
Prévision : Valide du 17 a 12:00 UTC au 18 a 09:00 UTC
Nuages : à 0ft (0 m)
WEBCAM POUR VALENCAY

Réglementation

Voler en sécurité

CARTES AERONAUTIQUE 1/500.000
CARTES VAC (LFYR)
SUP AIP




Chargement des AIP...
NOTAM (VALENCAY + Terrain à proximité / FIR )




Chargement des NOTAMS...
CONTACT PREFECTURE 36


Avertissement : Les données mises à disposition sont indicatives. Oxygène Drone ne pourra être tenu responsable de dégâts causés aux biens et aux personnes.